Orange, Texas
Current Conditions -  °F | °C
As of 5:53 AM on Sunday 23 Nov 2014 (Local Time) from KBPT Reporting Station
Clear Clear  
Wind Chill: 60°   Ceiling: Unl
Heat Index: 60°   Visibility: 10mi
Dew Point: 58°   Wind: 7mph
Humidity: 93%   Direction: 220°SW
Pressure: 29.66"   Gusts: NA
Location:  30.09°N, 93.74°W
Report Text: KBPT 231153Z 22006KT 10SM CLR 16/14 A2966 RMK AO2 SLP042 60122 70212 T01560144 10183 20156 55012
Loading
Personal Weather Stations






























Interactive Weather Map New forecast layout! Learn more

10-Day Weather Forecast

Advertisements
Track Severe Weather on mobile